createdAt,value
2019-02-18T00:01:00.843Z,99.90
2019-02-18T00:03:29.810Z,99.90
2019-02-18T00:05:58.433Z,99.90
2019-02-18T00:08:27.110Z,99.90
2019-02-18T00:10:55.738Z,99.90
2019-02-18T00:13:24.416Z,99.90
2019-02-18T00:15:53.109Z,99.90
2019-02-18T00:18:21.881Z,99.90
2019-02-18T00:20:50.744Z,99.90
2019-02-18T00:23:19.459Z,99.90
2019-02-18T00:25:48.399Z,99.90
2019-02-18T00:28:17.049Z,99.90
2019-02-18T00:30:45.702Z,99.90
2019-02-18T00:33:14.354Z,99.90
2019-02-18T00:35:42.975Z,99.90
2019-02-18T00:38:12.119Z,99.90
2019-02-18T00:40:40.742Z,99.90
2019-02-18T00:43:09.471Z,99.90
2019-02-18T00:45:38.134Z,99.90
2019-02-18T00:48:06.881Z,99.90
2019-02-18T00:50:35.507Z,99.90
2019-02-18T00:53:04.271Z,99.90
2019-02-18T00:55:33.031Z,99.90
2019-02-18T00:58:01.695Z,99.90
2019-02-18T01:00:30.355Z,99.90
2019-02-18T01:02:59.312Z,99.90
2019-02-18T01:05:27.945Z,99.90
2019-02-18T01:07:56.905Z,99.90
2019-02-18T01:10:25.835Z,99.90
2019-02-18T01:12:54.495Z,99.90
2019-02-18T01:15:23.191Z,99.90
2019-02-18T01:17:51.863Z,99.90
2019-02-18T01:20:20.510Z,99.90
2019-02-18T01:22:49.142Z,99.90
2019-02-18T01:25:17.779Z,99.90
2019-02-18T01:27:46.465Z,99.90
2019-02-18T01:30:15.443Z,99.90
2019-02-18T01:32:44.592Z,99.90
2019-02-18T01:35:14.648Z,99.90
2019-02-18T01:37:46.016Z,99.90
2019-02-18T01:40:14.504Z,99.90
2019-02-18T01:42:43.464Z,99.90
2019-02-18T01:45:13.098Z,99.90
2019-02-18T01:47:41.722Z,99.90
2019-02-18T01:50:12.438Z,99.90
2019-02-18T01:52:41.129Z,99.90
2019-02-18T01:55:11.039Z,99.90
2019-02-18T01:57:39.791Z,99.90
2019-02-18T02:00:14.119Z,99.90
2019-02-18T02:02:43.216Z,99.90
2019-02-18T02:05:13.170Z,99.90
2019-02-18T02:07:41.808Z,99.90
2019-02-18T02:10:11.719Z,99.90
2019-02-18T02:12:40.355Z,99.90
2019-02-18T02:15:21.314Z,99.90
2019-02-18T02:17:49.965Z,99.90
2019-02-18T02:20:18.601Z,99.90
2019-02-18T02:22:47.244Z,99.90
2019-02-18T02:25:15.868Z,99.90
2019-02-18T02:27:44.497Z,99.90
2019-02-18T02:30:13.296Z,99.90
2019-02-18T02:32:41.997Z,99.90
2019-02-18T02:35:10.636Z,99.90
2019-02-18T02:37:39.672Z,99.90
2019-02-18T02:40:08.939Z,99.90
2019-02-18T02:42:37.654Z,99.90
2019-02-18T02:45:06.869Z,99.90
2019-02-18T02:47:35.485Z,99.90
2019-02-18T02:50:04.529Z,99.90
2019-02-18T02:52:33.196Z,99.90
2019-02-18T02:55:02.100Z,99.90
2019-02-18T02:57:30.755Z,99.90
2019-02-18T02:59:59.518Z,99.90
2019-02-18T03:02:28.157Z,99.90
2019-02-18T03:04:56.806Z,99.90
2019-02-18T03:07:25.440Z,99.90
2019-02-18T03:09:54.065Z,99.90
2019-02-18T03:12:22.729Z,99.90
2019-02-18T03:14:51.442Z,99.90
2019-02-18T03:17:20.122Z,99.90
2019-02-18T03:19:48.767Z,99.90
2019-02-18T03:22:17.461Z,99.90
2019-02-18T03:25:23.538Z,99.90
2019-02-18T03:27:55.779Z,99.90
2019-02-18T03:30:43.023Z,99.90
2019-02-18T03:33:13.133Z,99.90
2019-02-18T03:35:41.797Z,99.90
2019-02-18T03:38:10.741Z,99.90
2019-02-18T03:40:39.377Z,99.90
2019-02-18T03:43:08.070Z,99.90
2019-02-18T03:45:37.031Z,99.90
2019-02-18T03:48:05.660Z,99.90
2019-02-18T03:50:34.307Z,99.90
2019-02-18T03:53:02.930Z,99.90
2019-02-18T03:55:31.634Z,99.90
2019-02-18T03:58:00.265Z,99.90
2019-02-18T04:00:28.903Z,99.90
2019-02-18T04:02:57.607Z,99.90
2019-02-18T04:05:26.339Z,99.90
2019-02-18T04:07:55.011Z,99.90
2019-02-18T04:10:23.647Z,99.90
2019-02-18T04:12:52.316Z,99.90
2019-02-18T04:15:20.983Z,99.90
2019-02-18T04:17:49.623Z,99.90
2019-02-18T04:20:18.273Z,99.90
2019-02-18T04:22:46.930Z,99.90
2019-02-18T04:25:15.627Z,99.90
2019-02-18T04:27:44.277Z,99.90
2019-02-18T04:30:13.758Z,99.90
2019-02-18T04:32:42.848Z,99.90
2019-02-18T04:35:11.522Z,99.90
2019-02-18T04:37:40.644Z,99.90
2019-02-18T04:40:09.666Z,99.90
2019-02-18T04:42:38.315Z,99.90
2019-02-18T04:45:07.119Z,99.90
2019-02-18T04:47:35.750Z,99.90
2019-02-18T04:50:04.779Z,99.90
2019-02-18T04:52:33.508Z,99.90
2019-02-18T04:55:02.151Z,99.90
2019-02-18T04:57:31.583Z,99.90
2019-02-18T05:00:00.370Z,99.90
2019-02-18T05:02:29.143Z,99.90
2019-02-18T05:04:57.767Z,99.90
2019-02-18T05:07:26.415Z,99.90
2019-02-18T05:09:55.051Z,99.90
2019-02-18T05:12:23.797Z,99.90
2019-02-18T05:14:52.552Z,99.90
2019-02-18T05:17:21.217Z,99.90
2019-02-18T05:19:49.843Z,99.90
2019-02-18T05:22:18.507Z,99.90
2019-02-18T05:24:47.295Z,99.90
2019-02-18T05:27:19.732Z,99.90
2019-02-18T05:29:48.343Z,99.90
2019-02-18T05:32:17.309Z,99.90
2019-02-18T05:34:45.942Z,99.90
2019-02-18T05:37:14.951Z,99.90
2019-02-18T05:39:43.594Z,99.90
2019-02-18T05:42:12.262Z,99.90
2019-02-18T05:44:40.893Z,99.90
2019-02-18T05:47:09.552Z,99.90
2019-02-18T05:49:38.200Z,99.90
2019-02-18T05:52:06.850Z,99.90
2019-02-18T05:54:35.501Z,99.90
2019-02-18T05:57:04.143Z,99.90
2019-02-18T05:59:32.860Z,99.90
2019-02-18T06:02:01.920Z,99.90
2019-02-18T06:04:30.609Z,99.90
2019-02-18T06:06:59.264Z,99.90
2019-02-18T06:09:30.068Z,99.90
2019-02-18T06:11:58.591Z,99.90
2019-02-18T06:14:27.244Z,99.90
2019-02-18T06:16:55.887Z,99.90
2019-02-18T06:19:24.528Z,99.90
2019-02-18T06:21:53.181Z,99.90
2019-02-18T06:24:21.851Z,99.90
2019-02-18T06:26:50.521Z,99.90
2019-02-18T06:29:19.158Z,99.90
2019-02-18T06:31:48.336Z,99.90
2019-02-18T06:34:17.279Z,99.90
2019-02-18T06:36:45.944Z,99.90
2019-02-18T06:39:14.587Z,99.90
2019-02-18T06:41:43.246Z,99.90
2019-02-18T06:44:11.990Z,99.90
2019-02-18T06:46:51.842Z,99.90
2019-02-18T06:49:23.091Z,99.90
2019-02-18T06:51:51.724Z,99.90
2019-02-18T06:54:20.375Z,99.90
2019-02-18T06:57:20.378Z,99.90
2019-02-18T06:59:54.758Z,99.90
2019-02-18T07:02:42.539Z,99.90
2019-02-18T07:05:20.147Z,99.90
2019-02-18T07:08:08.238Z,99.90
2019-02-18T07:10:51.896Z,99.90
2019-02-18T07:13:20.543Z,99.90
2019-02-18T07:15:49.309Z,99.90
2019-02-18T07:18:18.205Z,99.90
2019-02-18T07:20:46.939Z,99.90
2019-02-18T07:23:15.677Z,99.90
2019-02-18T07:25:44.316Z,99.90
2019-02-18T07:28:13.036Z,99.90
2019-02-18T07:30:41.707Z,99.90
2019-02-18T07:33:10.347Z,99.90
2019-02-18T07:35:38.989Z,99.90
2019-02-18T07:38:07.615Z,99.90
2019-02-18T07:40:36.253Z,99.90
2019-02-18T07:43:04.915Z,99.90
2019-02-18T07:45:33.658Z,99.90
2019-02-18T07:48:02.558Z,99.90
2019-02-18T07:50:31.320Z,99.90
2019-02-18T07:53:01.705Z,99.90
2019-02-18T07:55:30.315Z,99.90
2019-02-18T07:57:58.972Z,99.90
2019-02-18T08:00:27.842Z,99.90
2019-02-18T08:02:56.786Z,99.90
2019-02-18T08:05:25.400Z,99.90
2019-02-18T08:07:54.312Z,99.90
2019-02-18T08:10:22.967Z,99.90
2019-02-18T08:12:51.887Z,99.90
2019-02-18T08:15:20.564Z,99.90
2019-02-18T08:17:49.312Z,99.90
2019-02-18T08:20:18.003Z,99.90
2019-02-18T08:22:46.656Z,99.90
2019-02-18T08:25:15.271Z,99.90
2019-02-18T08:27:43.944Z,99.90
2019-02-18T08:30:13.155Z,99.90
2019-02-18T08:32:41.817Z,99.90
2019-02-18T08:35:11.067Z,99.90
2019-02-18T08:37:39.719Z,99.90
2019-02-18T08:40:08.527Z,99.90
2019-02-18T08:42:37.140Z,99.90
2019-02-18T08:45:07.571Z,99.90
2019-02-18T08:47:36.221Z,99.90
2019-02-18T08:50:05.608Z,99.90
2019-02-18T08:52:34.276Z,99.90
2019-02-18T08:55:03.033Z,99.90
2019-02-18T08:57:31.667Z,99.90
2019-02-18T09:00:00.349Z,99.90
2019-02-18T09:02:29.034Z,99.90
2019-02-18T09:04:57.679Z,99.90
2019-02-18T09:07:26.314Z,99.90
2019-02-18T09:09:54.993Z,99.90
2019-02-18T09:12:23.662Z,99.90
2019-02-18T09:14:52.351Z,99.90
2019-02-18T09:17:21.011Z,99.90
2019-02-18T09:19:49.735Z,99.90
2019-02-18T09:22:52.971Z,99.90
2019-02-18T09:25:24.587Z,99.90
2019-02-18T09:27:53.219Z,99.90
2019-02-18T09:30:25.765Z,99.90
2019-02-18T09:32:54.387Z,99.90
2019-02-18T09:35:23.165Z,99.90
2019-02-18T09:37:51.809Z,99.90
2019-02-18T09:40:20.500Z,99.90
2019-02-18T09:42:49.292Z,99.90
2019-02-18T09:45:17.916Z,99.90
2019-02-18T09:47:46.669Z,99.90
2019-02-18T09:50:15.388Z,99.90
2019-02-18T09:52:44.032Z,99.90
2019-02-18T09:55:12.672Z,99.90
2019-02-18T09:57:41.313Z,99.90
2019-02-18T10:00:10.447Z,99.90
2019-02-18T10:02:39.231Z,99.90
2019-02-18T10:05:08.235Z,99.90
2019-02-18T10:07:36.878Z,99.90
2019-02-18T10:10:06.016Z,99.90
2019-02-18T10:12:34.632Z,99.90
2019-02-18T10:15:03.331Z,99.90
2019-02-18T10:17:32.238Z,99.90
2019-02-18T10:20:00.940Z,99.90
2019-02-18T10:22:29.579Z,99.90
2019-02-18T10:24:58.219Z,99.90
2019-02-18T10:27:26.894Z,99.90
2019-02-18T10:29:55.581Z,99.90
2019-02-18T10:32:24.505Z,99.90
2019-02-18T10:34:53.139Z,99.90
2019-02-18T10:37:21.763Z,99.90
2019-02-18T10:39:50.411Z,99.90
2019-02-18T10:42:19.035Z,99.90
2019-02-18T10:44:47.683Z,99.90
2019-02-18T10:47:16.794Z,99.90
2019-02-18T10:49:46.683Z,99.90
2019-02-18T10:52:15.352Z,99.90
2019-02-18T10:54:44.066Z,99.90
2019-02-18T10:57:13.116Z,99.90
2019-02-18T10:59:41.775Z,99.90
2019-02-18T11:02:10.944Z,99.90
2019-02-18T11:04:39.602Z,99.90
2019-02-18T11:07:08.300Z,99.90
2019-02-18T11:09:36.939Z,99.90
2019-02-18T11:12:05.627Z,99.90
2019-02-18T11:14:34.321Z,99.90
2019-02-18T11:17:02.964Z,99.90
2019-02-18T11:19:31.627Z,99.90
2019-02-18T11:22:00.255Z,99.90
2019-02-18T11:24:29.223Z,99.90
2019-02-18T11:26:59.391Z,99.90
2019-02-18T11:29:28.104Z,99.90
2019-02-18T11:31:56.735Z,99.90
2019-02-18T11:34:25.393Z,99.90
2019-02-18T11:36:54.012Z,99.90
2019-02-18T11:39:22.688Z,99.90
2019-02-18T11:41:51.295Z,99.90
2019-02-18T11:44:19.978Z,99.30
2019-02-18T11:46:48.620Z,95.90
2019-02-18T11:49:17.256Z,94.10
2019-02-18T11:51:45.923Z,90.30
2019-02-18T11:54:14.855Z,90.30
2019-02-18T11:56:43.592Z,85.80
2019-02-18T11:59:12.212Z,77.00
2019-02-18T12:01:41.132Z,77.80
2019-02-18T12:04:09.770Z,77.40
2019-02-18T12:06:38.428Z,72.10
2019-02-18T12:09:07.329Z,70.30
2019-02-18T12:11:38.383Z,64.60
2019-02-18T12:14:06.707Z,62.30
2019-02-18T12:16:35.334Z,64.20
2019-02-18T12:19:03.955Z,55.90
2019-02-18T12:21:32.608Z,56.90
2019-02-18T12:24:01.227Z,55.50
2019-02-18T12:26:30.400Z,56.50
2019-02-18T12:28:59.328Z,58.30
2019-02-18T12:31:27.974Z,57.40
2019-02-18T12:33:56.708Z,53.20
2019-02-18T12:36:25.347Z,52.30
2019-02-18T12:38:53.979Z,53.80
2019-02-18T12:41:23.031Z,51.00
2019-02-18T12:43:51.679Z,53.40
2019-02-18T12:46:20.336Z,53.50
2019-02-18T12:48:48.970Z,50.10
2019-02-18T12:51:18.004Z,51.00
2019-02-18T12:53:46.634Z,48.70
2019-02-18T12:56:15.349Z,48.60
2019-02-18T13:01:14.756Z,48.70
2019-02-18T13:03:43.425Z,50.30
2019-02-18T13:06:12.380Z,50.30
2019-02-18T13:08:41.130Z,48.10
2019-02-18T13:11:09.932Z,47.70
2019-02-18T13:13:38.791Z,48.20
2019-02-18T13:16:07.435Z,47.40
2019-02-18T13:18:36.043Z,45.50
2019-02-18T13:21:04.695Z,45.90
2019-02-18T13:23:33.375Z,46.40
2019-02-18T13:26:01.997Z,47.70
2019-02-18T13:28:31.567Z,49.10
2019-02-18T13:31:00.201Z,48.00
2019-02-18T13:33:28.811Z,48.70
2019-02-18T13:35:57.523Z,48.90
2019-02-18T13:38:26.215Z,46.70
2019-02-18T13:40:54.905Z,47.80
2019-02-18T13:43:23.519Z,46.80
2019-02-18T13:45:52.151Z,46.50
2019-02-18T13:48:20.851Z,46.60
2019-02-18T13:50:49.811Z,46.50
2019-02-18T13:53:18.460Z,46.50
2019-02-18T13:55:47.185Z,46.60
2019-02-18T13:58:16.075Z,45.50
2019-02-18T14:00:44.803Z,47.30
2019-02-18T14:03:13.499Z,46.30
2019-02-18T14:05:42.484Z,47.70
2019-02-18T14:08:11.194Z,48.50
2019-02-18T14:10:39.887Z,46.40
2019-02-18T14:13:08.855Z,47.80
2019-02-18T14:15:37.534Z,47.40
2019-02-18T14:18:06.224Z,47.50
2019-02-18T14:20:34.862Z,48.20
2019-02-18T14:23:03.583Z,46.10
2019-02-18T14:25:32.247Z,45.90
2019-02-18T14:28:00.920Z,46.20
2019-02-18T14:30:29.989Z,46.00
2019-02-18T14:32:58.642Z,46.60
2019-02-18T14:35:27.404Z,47.40
2019-02-18T14:37:56.031Z,46.20
2019-02-18T14:40:25.324Z,45.80
2019-02-18T14:42:54.375Z,45.30
2019-02-18T14:45:22.999Z,44.90
2019-02-18T14:47:51.790Z,46.30
2019-02-18T14:50:20.416Z,46.50
2019-02-18T14:52:50.164Z,45.70
2019-02-18T14:55:18.770Z,45.70
2019-02-18T14:57:47.568Z,46.30
2019-02-18T15:00:21.572Z,45.80
2019-02-18T15:02:54.756Z,44.30
2019-02-18T15:05:23.812Z,46.80
2019-02-18T15:07:52.465Z,45.60
2019-02-18T15:10:21.412Z,48.30
2019-02-18T15:12:50.052Z,46.90
2019-02-18T15:15:18.923Z,48.00
2019-02-18T15:17:47.666Z,46.60
2019-02-18T15:20:16.383Z,46.40
2019-02-18T15:22:45.011Z,47.70
2019-02-18T15:25:13.806Z,48.90
2019-02-18T15:27:42.449Z,49.40
2019-02-18T15:30:11.865Z,51.00
2019-02-18T15:32:40.842Z,52.70
2019-02-18T15:35:09.647Z,53.30
2019-02-18T15:37:38.423Z,54.00
2019-02-18T15:40:08.019Z,54.50
2019-02-18T15:42:42.165Z,55.80
2019-02-18T15:45:07.553Z,56.30
2019-02-18T15:47:36.369Z,56.60
2019-02-18T15:50:05.183Z,57.00
2019-02-18T15:52:33.904Z,57.80
2019-02-18T15:55:02.880Z,58.20
2019-02-18T15:57:31.543Z,58.00
2019-02-18T16:00:00.232Z,59.10
2019-02-18T16:02:29.136Z,59.00
2019-02-18T16:04:57.849Z,59.70
2019-02-18T16:07:26.802Z,59.80
2019-02-18T16:09:55.411Z,59.90
2019-02-18T16:12:24.128Z,60.20
2019-02-18T16:14:52.759Z,60.60
2019-02-18T16:17:21.682Z,60.50
2019-02-18T16:19:50.335Z,62.10
2019-02-18T16:22:19.248Z,63.90
2019-02-18T16:24:47.885Z,64.00
2019-02-18T16:27:16.549Z,64.60
2019-02-18T16:29:45.176Z,65.80
2019-02-18T16:32:13.970Z,65.10
2019-02-18T16:34:42.652Z,66.40
2019-02-18T16:37:11.574Z,67.50
2019-02-18T16:39:40.372Z,68.50
2019-02-18T16:42:09.477Z,69.40
2019-02-18T16:44:38.123Z,70.30
2019-02-18T16:47:06.859Z,71.80
2019-02-18T16:49:35.956Z,72.90
2019-02-18T16:52:05.071Z,73.20
2019-02-18T16:54:34.010Z,74.40
2019-02-18T16:57:02.707Z,76.00
2019-02-18T16:59:31.321Z,76.90
2019-02-18T17:02:00.029Z,78.90
2019-02-18T17:04:28.699Z,79.80
2019-02-18T17:06:57.340Z,82.20
2019-02-18T17:09:25.955Z,83.90
2019-02-18T17:11:54.619Z,84.80
2019-02-18T17:14:23.331Z,86.20
2019-02-18T17:16:51.987Z,87.20
2019-02-18T17:19:20.640Z,89.40
2019-02-18T17:21:49.274Z,90.20
2019-02-18T17:24:18.160Z,90.60
2019-02-18T17:26:46.995Z,91.20
2019-02-18T17:29:15.651Z,91.50
2019-02-18T17:31:44.353Z,91.30
2019-02-18T17:34:13.096Z,91.80
2019-02-18T17:36:41.752Z,93.60
2019-02-18T17:39:10.565Z,94.20
2019-02-18T17:41:39.198Z,95.10
2019-02-18T17:44:08.509Z,96.40
2019-02-18T17:46:37.144Z,97.40
2019-02-18T17:49:05.783Z,98.80
2019-02-18T17:51:34.484Z,99.40
2019-02-18T17:54:03.250Z,99.90
2019-02-18T17:56:32.265Z,99.90
2019-02-18T17:59:00.952Z,99.90
2019-02-18T18:01:29.599Z,99.90
2019-02-18T18:03:58.259Z,99.90
2019-02-18T18:06:27.217Z,99.90
2019-02-18T18:08:55.875Z,99.90
2019-02-18T18:11:24.947Z,99.90
2019-02-18T18:13:53.678Z,99.90
2019-02-18T18:16:22.293Z,99.90
2019-02-18T18:18:50.967Z,99.90
2019-02-18T18:21:19.611Z,99.90
2019-02-18T18:23:48.255Z,99.90
2019-02-18T18:26:16.931Z,99.90
2019-02-18T18:28:45.842Z,99.90
2019-02-18T18:31:14.499Z,99.90
2019-02-18T18:33:43.183Z,99.90
2019-02-18T18:36:12.115Z,99.90
2019-02-18T18:38:40.856Z,99.90
2019-02-18T18:41:09.534Z,99.90
2019-02-18T18:43:38.622Z,99.90
2019-02-18T18:46:07.371Z,99.90
2019-02-18T18:48:36.172Z,99.90
2019-02-18T18:51:04.771Z,99.90
2019-02-18T18:53:33.434Z,99.90
2019-02-18T18:56:02.133Z,99.90
2019-02-18T18:58:31.051Z,99.90
2019-02-18T19:00:59.712Z,99.90
2019-02-18T19:03:28.478Z,99.90
2019-02-18T19:05:57.519Z,99.90
2019-02-18T19:08:26.195Z,99.90
2019-02-18T19:10:54.834Z,99.90
2019-02-18T19:13:26.795Z,99.90
2019-02-18T19:15:55.434Z,99.90
2019-02-18T19:18:24.067Z,99.90
2019-02-18T19:20:52.701Z,99.90
2019-02-18T19:23:21.677Z,99.90
2019-02-18T19:25:50.338Z,99.90
2019-02-18T19:28:19.098Z,99.90
2019-02-18T19:30:47.804Z,99.90
2019-02-18T19:33:16.520Z,99.90
2019-02-18T19:35:45.203Z,99.90
2019-02-18T19:38:13.841Z,99.90
2019-02-18T19:40:42.503Z,99.90
2019-02-18T19:43:11.136Z,99.90
2019-02-18T19:45:39.819Z,99.90
2019-02-18T19:48:08.484Z,99.90
2019-02-18T19:50:37.171Z,99.90
2019-02-18T19:53:05.799Z,99.90
2019-02-18T19:55:34.543Z,99.90
2019-02-18T19:58:03.165Z,99.90
2019-02-18T20:00:31.816Z,99.90
2019-02-18T20:03:00.722Z,99.90
2019-02-18T20:05:29.393Z,99.90
2019-02-18T20:07:58.045Z,99.90
2019-02-18T20:10:26.762Z,99.90
2019-02-18T20:12:55.636Z,99.90
2019-02-18T20:15:24.285Z,99.90
2019-02-18T20:17:53.003Z,99.90
2019-02-18T20:20:21.730Z,99.90
2019-02-18T20:22:50.358Z,99.90
2019-02-18T20:25:19.107Z,99.90
2019-02-18T20:27:48.286Z,99.90
2019-02-18T20:30:17.349Z,99.90
2019-02-18T20:32:45.971Z,99.90
2019-02-18T20:35:14.708Z,99.90
2019-02-18T20:37:43.470Z,99.90
2019-02-18T20:40:12.227Z,99.90
2019-02-18T20:42:41.119Z,99.90
2019-02-18T20:45:10.631Z,99.90
2019-02-18T20:47:39.255Z,99.90
2019-02-18T20:50:08.998Z,99.90
2019-02-18T20:52:37.636Z,99.90
2019-02-18T20:55:07.641Z,99.90
2019-02-18T20:57:36.664Z,99.90
2019-02-18T21:00:09.253Z,99.90
2019-02-18T21:02:38.161Z,99.90
2019-02-18T21:05:06.967Z,99.90
2019-02-18T21:07:35.600Z,99.90
2019-02-18T21:10:04.503Z,99.90
2019-02-18T21:12:33.126Z,99.90
2019-02-18T21:15:01.789Z,99.90
2019-02-18T21:17:30.657Z,99.90
2019-02-18T21:19:59.343Z,99.90
2019-02-18T21:22:27.964Z,99.90
2019-02-18T21:24:56.630Z,99.90
2019-02-18T21:27:25.611Z,99.90
2019-02-18T21:29:54.260Z,99.90
2019-02-18T21:32:22.986Z,99.90
2019-02-18T21:34:51.648Z,99.90
2019-02-18T21:37:20.462Z,99.90
2019-02-18T21:39:49.200Z,99.90
2019-02-18T21:42:18.547Z,99.90
2019-02-18T21:44:47.160Z,99.90
2019-02-18T21:47:15.841Z,99.90
2019-02-18T21:49:44.787Z,99.90
2019-02-18T21:52:13.968Z,99.90
2019-02-18T21:54:42.575Z,99.90
2019-02-18T21:57:11.636Z,99.90
2019-02-18T21:59:40.327Z,99.90
2019-02-18T22:02:09.131Z,99.90
2019-02-18T22:04:37.793Z,99.90
2019-02-18T22:07:06.590Z,99.90
2019-02-18T22:09:35.231Z,99.90
2019-02-18T22:12:03.963Z,99.90
2019-02-18T22:14:33.795Z,99.90
2019-02-18T22:17:03.455Z,99.90
2019-02-18T22:19:32.091Z,99.90
2019-02-18T22:22:00.840Z,99.90
2019-02-18T22:24:29.603Z,99.90
2019-02-18T22:26:58.284Z,99.90
2019-02-18T22:29:27.447Z,99.90
2019-02-18T22:31:56.078Z,99.90
2019-02-18T22:34:24.764Z,99.90
2019-02-18T22:36:53.435Z,99.90
2019-02-18T22:39:22.069Z,99.90
2019-02-18T22:41:50.693Z,99.90
2019-02-18T22:44:19.350Z,99.90
2019-02-18T22:46:48.479Z,99.90
2019-02-18T22:49:17.196Z,99.90
2019-02-18T22:51:46.442Z,99.90
2019-02-18T22:54:15.119Z,99.90
2019-02-18T22:56:43.815Z,99.90
2019-02-18T22:59:12.459Z,99.90
2019-02-18T23:01:42.578Z,99.90
2019-02-18T23:04:11.394Z,99.90
2019-02-18T23:06:40.144Z,99.90
2019-02-18T23:09:12.381Z,99.90
2019-02-18T23:11:41.036Z,99.90
2019-02-18T23:14:09.747Z,99.90
2019-02-18T23:16:38.379Z,99.90
2019-02-18T23:19:07.300Z,99.90
2019-02-18T23:21:36.003Z,99.90
2019-02-18T23:24:04.681Z,99.90
2019-02-18T23:26:33.319Z,99.90
2019-02-18T23:29:01.977Z,99.90
2019-02-18T23:31:30.895Z,99.90
2019-02-18T23:33:59.517Z,99.90
2019-02-18T23:36:28.181Z,99.90
2019-02-18T23:38:57.095Z,99.90
2019-02-18T23:41:25.867Z,99.90
2019-02-18T23:44:00.846Z,99.90
2019-02-18T23:46:40.135Z,99.90
2019-02-18T23:49:30.159Z,99.90
2019-02-18T23:52:05.572Z,99.90
2019-02-18T23:54:57.026Z,99.90
2019-02-18T23:57:35.302Z,99.90
